sensor_id;sensor_type;location;lat;lon;timestamp;P1;durP1;ratioP1;P2;durP2;ratioP2
22254;SDS011;11296;42.684;23.322;2022-12-05T00:01:58;10.80;;;6.73;;
22254;SDS011;11296;42.684;23.322;2022-12-05T00:04:24;12.60;;;7.07;;
22254;SDS011;11296;42.684;23.322;2022-12-05T00:06:49;12.60;;;7.20;;
22254;SDS011;11296;42.684;23.322;2022-12-05T00:09:15;9.47;;;6.70;;
22254;SDS011;11296;42.684;23.322;2022-12-05T00:11:41;10.43;;;7.00;;
22254;SDS011;11296;42.684;23.322;2022-12-05T00:14:09;11.80;;;7.00;;
22254;SDS011;11296;42.684;23.322;2022-12-05T00:16:36;10.73;;;7.33;;
22254;SDS011;11296;42.684;23.322;2022-12-05T00:19:04;11.17;;;7.07;;
22254;SDS011;11296;42.684;23.322;2022-12-05T00:21:32;11.50;;;7.40;;
22254;SDS011;11296;42.684;23.322;2022-12-05T00:24:00;11.87;;;7.07;;
22254;SDS011;11296;42.684;23.322;2022-12-05T00:26:28;10.70;;;6.83;;
22254;SDS011;11296;42.684;23.322;2022-12-05T00:28:56;10.57;;;6.80;;
22254;SDS011;11296;42.684;23.322;2022-12-05T00:31:22;12.37;;;7.33;;
22254;SDS011;11296;42.684;23.322;2022-12-05T00:33:49;12.53;;;7.37;;
22254;SDS011;11296;42.684;23.322;2022-12-05T00:36:20;12.70;;;7.43;;
22254;SDS011;11296;42.684;23.322;2022-12-05T00:38:50;12.10;;;7.17;;
22254;SDS011;11296;42.684;23.322;2022-12-05T00:41:18;13.80;;;8.27;;
22254;SDS011;11296;42.684;23.322;2022-12-05T00:43:45;13.33;;;7.60;;
22254;SDS011;11296;42.684;23.322;2022-12-05T00:46:14;14.30;;;7.73;;
22254;SDS011;11296;42.684;23.322;2022-12-05T00:48:51;11.57;;;6.97;;
22254;SDS011;11296;42.684;23.322;2022-12-05T00:51:19;14.63;;;8.10;;
22254;SDS011;11296;42.684;23.322;2022-12-05T00:53:46;11.73;;;7.50;;
22254;SDS011;11296;42.684;23.322;2022-12-05T00:56:18;13.13;;;7.90;;
22254;SDS011;11296;42.684;23.322;2022-12-05T00:58:45;13.63;;;7.50;;
22254;SDS011;11296;42.684;23.322;2022-12-05T01:01:12;17.10;;;8.27;;
22254;SDS011;11296;42.684;23.322;2022-12-05T01:03:57;15.50;;;8.13;;
22254;SDS011;11296;42.684;23.322;2022-12-05T01:06:24;12.13;;;7.80;;
22254;SDS011;11296;42.684;23.322;2022-12-05T01:08:52;11.97;;;6.93;;
22254;SDS011;11296;42.684;23.322;2022-12-05T01:11:19;13.17;;;7.63;;
22254;SDS011;11296;42.684;23.322;2022-12-05T01:13:45;13.63;;;7.60;;
22254;SDS011;11296;42.684;23.322;2022-12-05T01:16:19;13.83;;;7.57;;
22254;SDS011;11296;42.684;23.322;2022-12-05T01:18:45;16.80;;;8.37;;
22254;SDS011;11296;42.684;23.322;2022-12-05T01:21:10;15.63;;;8.07;;
22254;SDS011;11296;42.684;23.322;2022-12-05T01:23:37;12.53;;;7.23;;
22254;SDS011;11296;42.684;23.322;2022-12-05T01:26:09;13.13;;;7.53;;
22254;SDS011;11296;42.684;23.322;2022-12-05T01:28:37;15.07;;;8.10;;
22254;SDS011;11296;42.684;23.322;2022-12-05T01:31:05;14.03;;;7.43;;
22254;SDS011;11296;42.684;23.322;2022-12-05T01:33:33;13.43;;;7.20;;
22254;SDS011;11296;42.684;23.322;2022-12-05T01:35:59;14.43;;;7.57;;
22254;SDS011;11296;42.684;23.322;2022-12-05T01:38:26;15.63;;;8.00;;
22254;SDS011;11296;42.684;23.322;2022-12-05T01:41:00;13.90;;;7.10;;
22254;SDS011;11296;42.684;23.322;2022-12-05T01:43:27;15.83;;;8.10;;
22254;SDS011;11296;42.684;23.322;2022-12-05T01:45:53;17.30;;;7.73;;
22254;SDS011;11296;42.684;23.322;2022-12-05T01:48:24;14.30;;;7.63;;
22254;SDS011;11296;42.684;23.322;2022-12-05T01:50:52;14.60;;;8.37;;
22254;SDS011;11296;42.684;23.322;2022-12-05T01:53:18;16.80;;;8.43;;
22254;SDS011;11296;42.684;23.322;2022-12-05T01:55:45;13.80;;;7.97;;
22254;SDS011;11296;42.684;23.322;2022-12-05T01:58:12;13.67;;;8.27;;
22254;SDS011;11296;42.684;23.322;2022-12-05T02:00:40;16.00;;;8.20;;
22254;SDS011;11296;42.684;23.322;2022-12-05T02:03:06;16.70;;;8.50;;
22254;SDS011;11296;42.684;23.322;2022-12-05T02:05:36;16.97;;;8.23;;
22254;SDS011;11296;42.684;23.322;2022-12-05T02:08:04;17.13;;;9.00;;
22254;SDS011;11296;42.684;23.322;2022-12-05T02:10:36;16.13;;;8.03;;
22254;SDS011;11296;42.684;23.322;2022-12-05T02:13:30;14.63;;;8.03;;
22254;SDS011;11296;42.684;23.322;2022-12-05T02:16:02;11.90;;;7.40;;
22254;SDS011;11296;42.684;23.322;2022-12-05T02:26:47;12.63;;;7.17;;
22254;SDS011;11296;42.684;23.322;2022-12-05T02:29:55;14.10;;;8.00;;
22254;SDS011;11296;42.684;23.322;2022-12-05T02:35:45;13.27;;;7.70;;
22254;SDS011;11296;42.684;23.322;2022-12-05T02:43:10;12.73;;;7.10;;
22254;SDS011;11296;42.684;23.322;2022-12-05T02:45:42;12.43;;;7.00;;
22254;SDS011;11296;42.684;23.322;2022-12-05T02:48:09;12.87;;;7.10;;
22254;SDS011;11296;42.684;23.322;2022-12-05T02:50:39;12.27;;;7.20;;
22254;SDS011;11296;42.684;23.322;2022-12-05T02:53:08;16.70;;;7.77;;
22254;SDS011;11296;42.684;23.322;2022-12-05T02:55:36;12.47;;;7.23;;
22254;SDS011;11296;42.684;23.322;2022-12-05T02:58:04;17.60;;;8.10;;
22254;SDS011;11296;42.684;23.322;2022-12-05T03:00:34;13.10;;;7.53;;
22254;SDS011;11296;42.684;23.322;2022-12-05T03:03:00;12.00;;;7.03;;
22254;SDS011;11296;42.684;23.322;2022-12-05T03:05:44;13.33;;;7.83;;
22254;SDS011;11296;42.684;23.322;2022-12-05T03:08:12;13.17;;;7.43;;
22254;SDS011;11296;42.684;23.322;2022-12-05T03:10:43;14.20;;;7.20;;
22254;SDS011;11296;42.684;23.322;2022-12-05T03:13:12;12.60;;;7.10;;
22254;SDS011;11296;42.684;23.322;2022-12-05T03:15:48;14.00;;;8.37;;
22254;SDS011;11296;42.684;23.322;2022-12-05T03:18:19;13.37;;;7.47;;
22254;SDS011;11296;42.684;23.322;2022-12-05T03:20:58;13.27;;;7.03;;
22254;SDS011;11296;42.684;23.322;2022-12-05T03:23:32;14.43;;;7.37;;
22254;SDS011;11296;42.684;23.322;2022-12-05T03:32:16;15.20;;;7.73;;
22254;SDS011;11296;42.684;23.322;2022-12-05T03:34:44;14.53;;;7.13;;
22254;SDS011;11296;42.684;23.322;2022-12-05T03:37:08;13.83;;;7.67;;
22254;SDS011;11296;42.684;23.322;2022-12-05T03:39:46;14.83;;;8.43;;
22254;SDS011;11296;42.684;23.322;2022-12-05T03:42:19;12.77;;;7.50;;
22254;SDS011;11296;42.684;23.322;2022-12-05T03:44:56;14.43;;;7.77;;
22254;SDS011;11296;42.684;23.322;2022-12-05T03:47:27;15.90;;;8.00;;
22254;SDS011;11296;42.684;23.322;2022-12-05T03:50:08;16.57;;;8.27;;
22254;SDS011;11296;42.684;23.322;2022-12-05T03:53:01;12.37;;;7.07;;
22254;SDS011;11296;42.684;23.322;2022-12-05T03:55:34;12.77;;;7.30;;
22254;SDS011;11296;42.684;23.322;2022-12-05T03:58:07;14.43;;;7.40;;
22254;SDS011;11296;42.684;23.322;2022-12-05T04:00:42;15.37;;;7.70;;
22254;SDS011;11296;42.684;23.322;2022-12-05T04:03:19;14.37;;;7.70;;
22254;SDS011;11296;42.684;23.322;2022-12-05T04:06:13;14.33;;;7.77;;
22254;SDS011;11296;42.684;23.322;2022-12-05T04:11:47;16.07;;;8.00;;
22254;SDS011;11296;42.684;23.322;2022-12-05T04:14:18;18.60;;;8.50;;
22254;SDS011;11296;42.684;23.322;2022-12-05T04:16:52;15.63;;;7.87;;
22254;SDS011;11296;42.684;23.322;2022-12-05T04:19:30;13.50;;;7.70;;
22254;SDS011;11296;42.684;23.322;2022-12-05T04:22:28;17.20;;;9.10;;
22254;SDS011;11296;42.684;23.322;2022-12-05T04:24:55;17.80;;;8.13;;
22254;SDS011;11296;42.684;23.322;2022-12-05T04:27:44;15.90;;;8.13;;
22254;SDS011;11296;42.684;23.322;2022-12-05T04:30:22;15.03;;;7.73;;
22254;SDS011;11296;42.684;23.322;2022-12-05T04:33:01;15.00;;;7.93;;
22254;SDS011;11296;42.684;23.322;2022-12-05T04:35:45;15.70;;;8.13;;
22254;SDS011;11296;42.684;23.322;2022-12-05T04:38:29;17.80;;;8.23;;
22254;SDS011;11296;42.684;23.322;2022-12-05T04:41:03;16.93;;;8.57;;
22254;SDS011;11296;42.684;23.322;2022-12-05T04:43:33;20.00;;;8.80;;
22254;SDS011;11296;42.684;23.322;2022-12-05T04:46:04;16.00;;;8.13;;
22254;SDS011;11296;42.684;23.322;2022-12-05T04:48:34;16.57;;;8.37;;
22254;SDS011;11296;42.684;23.322;2022-12-05T04:51:03;15.10;;;8.30;;
22254;SDS011;11296;42.684;23.322;2022-12-05T04:53:33;16.50;;;8.33;;
22254;SDS011;11296;42.684;23.322;2022-12-05T04:56:01;18.33;;;8.27;;
22254;SDS011;11296;42.684;23.322;2022-12-05T04:58:29;19.80;;;9.30;;
22254;SDS011;11296;42.684;23.322;2022-12-05T05:06:30;18.80;;;9.10;;
22254;SDS011;11296;42.684;23.322;2022-12-05T05:08:57;19.77;;;8.77;;
22254;SDS011;11296;42.684;23.322;2022-12-05T05:11:32;15.27;;;7.90;;
22254;SDS011;11296;42.684;23.322;2022-12-05T05:13:59;15.50;;;8.00;;
22254;SDS011;11296;42.684;23.322;2022-12-05T05:16:27;19.43;;;9.27;;
22254;SDS011;11296;42.684;23.322;2022-12-05T05:18:55;22.97;;;7.93;;
22254;SDS011;11296;42.684;23.322;2022-12-05T05:21:28;15.93;;;8.27;;
22254;SDS011;11296;42.684;23.322;2022-12-05T05:23:55;16.80;;;8.87;;
22254;SDS011;11296;42.684;23.322;2022-12-05T05:26:23;16.23;;;8.33;;
22254;SDS011;11296;42.684;23.322;2022-12-05T05:28:50;15.47;;;7.90;;
22254;SDS011;11296;42.684;23.322;2022-12-05T05:31:16;14.20;;;8.17;;
22254;SDS011;11296;42.684;23.322;2022-12-05T05:33:51;17.43;;;8.20;;
22254;SDS011;11296;42.684;23.322;2022-12-05T05:36:19;16.43;;;8.33;;
22254;SDS011;11296;42.684;23.322;2022-12-05T05:38:47;14.63;;;8.03;;
22254;SDS011;11296;42.684;23.322;2022-12-05T05:41:21;15.33;;;8.57;;
22254;SDS011;11296;42.684;23.322;2022-12-05T05:43:52;22.03;;;10.10;;
22254;SDS011;11296;42.684;23.322;2022-12-05T05:46:20;14.80;;;8.13;;
22254;SDS011;11296;42.684;23.322;2022-12-05T05:48:48;16.50;;;8.17;;
22254;SDS011;11296;42.684;23.322;2022-12-05T05:51:14;17.13;;;8.00;;
22254;SDS011;11296;42.684;23.322;2022-12-05T05:53:41;15.57;;;8.23;;
22254;SDS011;11296;42.684;23.322;2022-12-05T05:56:09;14.03;;;7.97;;
22254;SDS011;11296;42.684;23.322;2022-12-05T05:58:37;12.97;;;6.93;;
22254;SDS011;11296;42.684;23.322;2022-12-05T06:01:03;18.33;;;8.47;;
22254;SDS011;11296;42.684;23.322;2022-12-05T06:03:30;20.53;;;8.93;;
22254;SDS011;11296;42.684;23.322;2022-12-05T06:05:57;18.17;;;8.93;;
22254;SDS011;11296;42.684;23.322;2022-12-05T06:08:23;18.07;;;9.13;;
22254;SDS011;11296;42.684;23.322;2022-12-05T06:10:49;17.17;;;9.20;;
22254;SDS011;11296;42.684;23.322;2022-12-05T06:13:15;18.60;;;8.10;;
22254;SDS011;11296;42.684;23.322;2022-12-05T06:15:40;17.70;;;9.40;;
22254;SDS011;11296;42.684;23.322;2022-12-05T06:18:06;18.63;;;9.17;;
22254;SDS011;11296;42.684;23.322;2022-12-05T06:20:32;15.30;;;8.73;;
22254;SDS011;11296;42.684;23.322;2022-12-05T06:22:57;17.37;;;9.00;;
22254;SDS011;11296;42.684;23.322;2022-12-05T06:25:23;16.00;;;8.57;;
22254;SDS011;11296;42.684;23.322;2022-12-05T06:27:49;15.33;;;8.57;;
22254;SDS011;11296;42.684;23.322;2022-12-05T06:30:14;18.93;;;10.00;;
22254;SDS011;11296;42.684;23.322;2022-12-05T06:32:40;14.90;;;8.27;;
22254;SDS011;11296;42.684;23.322;2022-12-05T06:35:06;18.70;;;9.23;;
22254;SDS011;11296;42.684;23.322;2022-12-05T06:37:39;17.23;;;9.27;;
22254;SDS011;11296;42.684;23.322;2022-12-05T06:40:08;14.73;;;8.27;;
22254;SDS011;11296;42.684;23.322;2022-12-05T06:42:35;15.20;;;8.33;;
22254;SDS011;11296;42.684;23.322;2022-12-05T06:45:01;22.57;;;14.67;;
22254;SDS011;11296;42.684;23.322;2022-12-05T06:47:27;17.20;;;9.80;;
22254;SDS011;11296;42.684;23.322;2022-12-05T06:49:52;12.93;;;8.20;;
22254;SDS011;11296;42.684;23.322;2022-12-05T06:52:18;15.90;;;8.43;;
22254;SDS011;11296;42.684;23.322;2022-12-05T06:54:44;14.53;;;8.27;;
22254;SDS011;11296;42.684;23.322;2022-12-05T06:57:11;16.13;;;8.97;;
22254;SDS011;11296;42.684;23.322;2022-12-05T06:59:37;14.47;;;8.03;;
22254;SDS011;11296;42.684;23.322;2022-12-05T07:02:03;14.33;;;8.40;;
22254;SDS011;11296;42.684;23.322;2022-12-05T07:04:32;17.00;;;8.37;;
22254;SDS011;11296;42.684;23.322;2022-12-05T07:06:58;16.20;;;8.50;;
22254;SDS011;11296;42.684;23.322;2022-12-05T07:09:26;16.53;;;8.43;;
22254;SDS011;11296;42.684;23.322;2022-12-05T07:12:16;14.97;;;7.97;;
22254;SDS011;11296;42.684;23.322;2022-12-05T07:14:43;14.90;;;8.17;;
22254;SDS011;11296;42.684;23.322;2022-12-05T07:17:12;15.23;;;8.23;;
22254;SDS011;11296;42.684;23.322;2022-12-05T07:19:37;15.90;;;8.97;;
22254;SDS011;11296;42.684;23.322;2022-12-05T07:22:03;14.17;;;8.07;;
22254;SDS011;11296;42.684;23.322;2022-12-05T07:24:29;14.07;;;8.37;;
22254;SDS011;11296;42.684;23.322;2022-12-05T07:26:55;15.73;;;8.30;;
22254;SDS011;11296;42.684;23.322;2022-12-05T07:29:20;13.30;;;7.73;;
22254;SDS011;11296;42.684;23.322;2022-12-05T07:31:46;13.10;;;7.33;;
22254;SDS011;11296;42.684;23.322;2022-12-05T07:34:11;14.40;;;8.07;;
22254;SDS011;11296;42.684;23.322;2022-12-05T07:36:37;12.47;;;7.37;;
22254;SDS011;11296;42.684;23.322;2022-12-05T07:39:03;14.17;;;8.37;;
22254;SDS011;11296;42.684;23.322;2022-12-05T07:41:29;13.10;;;7.97;;
22254;SDS011;11296;42.684;23.322;2022-12-05T07:43:57;19.70;;;10.93;;
22254;SDS011;11296;42.684;23.322;2022-12-05T07:46:25;40.33;;;24.73;;
22254;SDS011;11296;42.684;23.322;2022-12-05T07:48:51;16.40;;;8.73;;
22254;SDS011;11296;42.684;23.322;2022-12-05T07:51:17;10.87;;;7.20;;
22254;SDS011;11296;42.684;23.322;2022-12-05T07:53:44;13.73;;;7.97;;
22254;SDS011;11296;42.684;23.322;2022-12-05T07:56:11;11.90;;;7.80;;
22254;SDS011;11296;42.684;23.322;2022-12-05T07:58:41;15.10;;;8.33;;
22254;SDS011;11296;42.684;23.322;2022-12-05T08:01:08;14.77;;;8.53;;
22254;SDS011;11296;42.684;23.322;2022-12-05T08:03:36;32.17;;;18.47;;
22254;SDS011;11296;42.684;23.322;2022-12-05T08:08:55;14.40;;;8.10;;
22254;SDS011;11296;42.684;23.322;2022-12-05T08:11:26;14.77;;;8.70;;
22254;SDS011;11296;42.684;23.322;2022-12-05T08:13:54;17.00;;;8.13;;
22254;SDS011;11296;42.684;23.322;2022-12-05T08:16:22;16.13;;;8.60;;
22254;SDS011;11296;42.684;23.322;2022-12-05T08:18:52;15.73;;;8.47;;
22254;SDS011;11296;42.684;23.322;2022-12-05T08:21:21;13.97;;;8.40;;
22254;SDS011;11296;42.684;23.322;2022-12-05T08:23:47;12.73;;;7.63;;
22254;SDS011;11296;42.684;23.322;2022-12-05T08:26:14;14.30;;;8.60;;
22254;SDS011;11296;42.684;23.322;2022-12-05T08:28:45;13.67;;;8.53;;
22254;SDS011;11296;42.684;23.322;2022-12-05T08:31:12;14.83;;;8.47;;
22254;SDS011;11296;42.684;23.322;2022-12-05T08:33:39;12.70;;;8.07;;
22254;SDS011;11296;42.684;23.322;2022-12-05T08:36:07;13.10;;;7.90;;
22254;SDS011;11296;42.684;23.322;2022-12-05T08:38:35;12.87;;;7.77;;
22254;SDS011;11296;42.684;23.322;2022-12-05T08:41:05;11.43;;;7.03;;
22254;SDS011;11296;42.684;23.322;2022-12-05T08:43:32;10.97;;;7.17;;
22254;SDS011;11296;42.684;23.322;2022-12-05T08:45:58;12.13;;;7.00;;
22254;SDS011;11296;42.684;23.322;2022-12-05T08:48:25;9.17;;;6.03;;
22254;SDS011;11296;42.684;23.322;2022-12-05T08:50:52;11.37;;;6.23;;
22254;SDS011;11296;42.684;23.322;2022-12-05T08:53:18;8.57;;;6.03;;
22254;SDS011;11296;42.684;23.322;2022-12-05T08:55:51;10.27;;;5.70;;
22254;SDS011;11296;42.684;23.322;2022-12-05T08:58:22;8.37;;;5.37;;
22254;SDS011;11296;42.684;23.322;2022-12-05T09:00:47;6.97;;;5.20;;
22254;SDS011;11296;42.684;23.322;2022-12-05T09:03:13;9.60;;;5.70;;
22254;SDS011;11296;42.684;23.322;2022-12-05T09:05:39;9.43;;;5.80;;
22254;SDS011;11296;42.684;23.322;2022-12-05T09:08:04;9.83;;;5.93;;
22254;SDS011;11296;42.684;23.322;2022-12-05T09:10:30;9.07;;;6.37;;
22254;SDS011;11296;42.684;23.322;2022-12-05T09:12:56;10.60;;;6.40;;
22254;SDS011;11296;42.684;23.322;2022-12-05T09:15:21;9.50;;;6.17;;
22254;SDS011;11296;42.684;23.322;2022-12-05T09:17:47;10.90;;;5.83;;
22254;SDS011;11296;42.684;23.322;2022-12-05T09:20:13;7.50;;;5.43;;
22254;SDS011;11296;42.684;23.322;2022-12-05T09:22:39;10.97;;;6.27;;
22254;SDS011;11296;42.684;23.322;2022-12-05T09:25:05;7.80;;;5.30;;
22254;SDS011;11296;42.684;23.322;2022-12-05T09:27:31;11.30;;;5.40;;
22254;SDS011;11296;42.684;23.322;2022-12-05T09:29:57;8.63;;;5.57;;
22254;SDS011;11296;42.684;23.322;2022-12-05T09:32:23;11.37;;;6.03;;
22254;SDS011;11296;42.684;23.322;2022-12-05T09:34:48;9.63;;;6.17;;
22254;SDS011;11296;42.684;23.322;2022-12-05T09:37:14;10.73;;;5.70;;
22254;SDS011;11296;42.684;23.322;2022-12-05T09:39:41;10.00;;;5.47;;
22254;SDS011;11296;42.684;23.322;2022-12-05T09:50:23;6.17;;;4.87;;
22254;SDS011;11296;42.684;23.322;2022-12-05T09:53:04;5.90;;;4.50;;
22254;SDS011;11296;42.684;23.322;2022-12-05T09:55:43;6.20;;;4.43;;
22254;SDS011;11296;42.684;23.322;2022-12-05T09:58:54;8.13;;;5.10;;
22254;SDS011;11296;42.684;23.322;2022-12-05T10:01:53;9.53;;;5.07;;
22254;SDS011;11296;42.684;23.322;2022-12-05T10:07:05;9.27;;;4.97;;
22254;SDS011;11296;42.684;23.322;2022-12-05T10:09:51;8.17;;;5.70;;
22254;SDS011;11296;42.684;23.322;2022-12-05T10:15:22;7.90;;;5.20;;
22254;SDS011;11296;42.684;23.322;2022-12-05T10:23:28;9.73;;;5.93;;
22254;SDS011;11296;42.684;23.322;2022-12-05T10:26:13;19.83;;;7.00;;
22254;SDS011;11296;42.684;23.322;2022-12-05T10:28:45;11.47;;;6.30;;
22254;SDS011;11296;42.684;23.322;2022-12-05T10:31:13;14.10;;;6.63;;
22254;SDS011;11296;42.684;23.322;2022-12-05T10:33:45;9.63;;;6.17;;
22254;SDS011;11296;42.684;23.322;2022-12-05T10:36:14;10.30;;;6.30;;
22254;SDS011;11296;42.684;23.322;2022-12-05T10:38:41;12.50;;;6.63;;
22254;SDS011;11296;42.684;23.322;2022-12-05T10:41:11;8.37;;;5.80;;
22254;SDS011;11296;42.684;23.322;2022-12-05T10:43:40;12.07;;;6.13;;
22254;SDS011;11296;42.684;23.322;2022-12-05T10:46:08;9.33;;;5.53;;
22254;SDS011;11296;42.684;23.322;2022-12-05T10:48:37;8.97;;;6.10;;
22254;SDS011;11296;42.684;23.322;2022-12-05T10:51:06;9.07;;;6.07;;
22254;SDS011;11296;42.684;23.322;2022-12-05T10:53:45;21.53;;;14.07;;
22254;SDS011;11296;42.684;23.322;2022-12-05T10:59:01;8.77;;;6.23;;
22254;SDS011;11296;42.684;23.322;2022-12-05T11:01:27;8.67;;;6.10;;
22254;SDS011;11296;42.684;23.322;2022-12-05T11:04:00;8.73;;;5.90;;
22254;SDS011;11296;42.684;23.322;2022-12-05T11:06:31;11.63;;;6.80;;
22254;SDS011;11296;42.684;23.322;2022-12-05T11:11:44;10.80;;;5.83;;
22254;SDS011;11296;42.684;23.322;2022-12-05T11:14:38;9.27;;;5.90;;
22254;SDS011;11296;42.684;23.322;2022-12-05T11:17:04;13.53;;;6.67;;
22254;SDS011;11296;42.684;23.322;2022-12-05T11:19:34;12.70;;;6.60;;
22254;SDS011;11296;42.684;23.322;2022-12-05T11:22:05;10.27;;;5.97;;
22254;SDS011;11296;42.684;23.322;2022-12-05T11:24:36;10.13;;;6.60;;
22254;SDS011;11296;42.684;23.322;2022-12-05T11:29:41;10.70;;;5.97;;
22254;SDS011;11296;42.684;23.322;2022-12-05T11:32:21;12.20;;;6.97;;
22254;SDS011;11296;42.684;23.322;2022-12-05T11:34:51;11.63;;;6.87;;
22254;SDS011;11296;42.684;23.322;2022-12-05T11:37:27;8.67;;;6.10;;
22254;SDS011;11296;42.684;23.322;2022-12-05T11:40:02;11.17;;;7.33;;
22254;SDS011;11296;42.684;23.322;2022-12-05T11:42:47;10.50;;;6.90;;
22254;SDS011;11296;42.684;23.322;2022-12-05T11:51:16;11.23;;;6.27;;
22254;SDS011;11296;42.684;23.322;2022-12-05T11:56:37;16.23;;;10.17;;
22254;SDS011;11296;42.684;23.322;2022-12-05T11:59:16;16.33;;;9.43;;
22254;SDS011;11296;42.684;23.322;2022-12-05T12:13:20;10.23;;;7.37;;
22254;SDS011;11296;42.684;23.322;2022-12-05T12:26:37;13.37;;;8.90;;
22254;SDS011;11296;42.684;23.322;2022-12-05T12:32:10;33.20;;;21.77;;
22254;SDS011;11296;42.684;23.322;2022-12-05T12:51:35;13.27;;;8.20;;
22254;SDS011;11296;42.684;23.322;2022-12-05T12:57:04;16.63;;;9.47;;
22254;SDS011;11296;42.684;23.322;2022-12-05T12:59:48;16.90;;;10.43;;
22254;SDS011;11296;42.684;23.322;2022-12-05T13:02:26;17.60;;;10.93;;
22254;SDS011;11296;42.684;23.322;2022-12-05T13:07:50;17.83;;;11.07;;
22254;SDS011;11296;42.684;23.322;2022-12-05T13:12:53;16.03;;;10.67;;
22254;SDS011;11296;42.684;23.322;2022-12-05T13:15:33;20.90;;;10.73;;
22254;SDS011;11296;42.684;23.322;2022-12-05T13:18:21;16.03;;;10.27;;
22254;SDS011;11296;42.684;23.322;2022-12-05T13:20:49;42.33;;;23.40;;
22254;SDS011;11296;42.684;23.322;2022-12-05T13:23:17;18.03;;;10.33;;
22254;SDS011;11296;42.684;23.322;2022-12-05T13:25:45;19.30;;;11.20;;
22254;SDS011;11296;42.684;23.322;2022-12-05T13:28:20;16.90;;;10.80;;
22254;SDS011;11296;42.684;23.322;2022-12-05T13:30:48;19.20;;;10.33;;
22254;SDS011;11296;42.684;23.322;2022-12-05T13:33:32;15.97;;;10.27;;
22254;SDS011;11296;42.684;23.322;2022-12-05T13:36:12;19.60;;;10.90;;
22254;SDS011;11296;42.684;23.322;2022-12-05T13:39:17;21.53;;;10.97;;
22254;SDS011;11296;42.684;23.322;2022-12-05T13:42:05;17.77;;;11.03;;
22254;SDS011;11296;42.684;23.322;2022-12-05T13:44:41;22.53;;;12.00;;
22254;SDS011;11296;42.684;23.322;2022-12-05T13:47:19;24.50;;;13.70;;
22254;SDS011;11296;42.684;23.322;2022-12-05T13:49:51;16.57;;;9.93;;
22254;SDS011;11296;42.684;23.322;2022-12-05T13:52:23;17.53;;;10.97;;
22254;SDS011;11296;42.684;23.322;2022-12-05T13:54:55;19.83;;;11.20;;
22254;SDS011;11296;42.684;23.322;2022-12-05T14:05:49;28.87;;;15.70;;
22254;SDS011;11296;42.684;23.322;2022-12-05T14:15:48;18.63;;;11.23;;
22254;SDS011;11296;42.684;23.322;2022-12-05T14:37:52;23.53;;;12.60;;
22254;SDS011;11296;42.684;23.322;2022-12-05T14:45:28;22.80;;;12.47;;
22254;SDS011;11296;42.684;23.322;2022-12-05T14:55:49;25.83;;;14.00;;
22254;SDS011;11296;42.684;23.322;2022-12-05T15:01:17;21.90;;;12.33;;
22254;SDS011;11296;42.684;23.322;2022-12-05T15:06:32;21.97;;;12.77;;
22254;SDS011;11296;42.684;23.322;2022-12-05T15:09:04;22.77;;;12.77;;
22254;SDS011;11296;42.684;23.322;2022-12-05T15:11:33;22.40;;;12.10;;
22254;SDS011;11296;42.684;23.322;2022-12-05T15:16:37;19.87;;;12.50;;
22254;SDS011;11296;42.684;23.322;2022-12-05T15:19:12;23.43;;;12.67;;
22254;SDS011;11296;42.684;23.322;2022-12-05T15:22:01;18.80;;;11.03;;
22254;SDS011;11296;42.684;23.322;2022-12-05T15:24:38;23.37;;;12.30;;
22254;SDS011;11296;42.684;23.322;2022-12-05T15:27:04;19.30;;;11.60;;
22254;SDS011;11296;42.684;23.322;2022-12-05T15:29:35;23.67;;;11.43;;
22254;SDS011;11296;42.684;23.322;2022-12-05T15:32:03;19.80;;;12.40;;
22254;SDS011;11296;42.684;23.322;2022-12-05T15:34:41;21.70;;;12.40;;
22254;SDS011;11296;42.684;23.322;2022-12-05T15:40:18;21.40;;;11.60;;
22254;SDS011;11296;42.684;23.322;2022-12-05T15:42:51;20.03;;;12.20;;
22254;SDS011;11296;42.684;23.322;2022-12-05T15:45:28;20.07;;;11.60;;
22254;SDS011;11296;42.684;23.322;2022-12-05T15:50:29;21.40;;;11.80;;
22254;SDS011;11296;42.684;23.322;2022-12-05T15:55:42;21.90;;;12.73;;
22254;SDS011;11296;42.684;23.322;2022-12-05T15:58:23;23.67;;;13.10;;
22254;SDS011;11296;42.684;23.322;2022-12-05T16:00:57;21.43;;;12.40;;
22254;SDS011;11296;42.684;23.322;2022-12-05T16:03:36;20.33;;;12.03;;
22254;SDS011;11296;42.684;23.322;2022-12-05T16:06:13;19.90;;;11.93;;
22254;SDS011;11296;42.684;23.322;2022-12-05T16:08:47;19.70;;;12.23;;
22254;SDS011;11296;42.684;23.322;2022-12-05T16:11:15;24.30;;;12.90;;
22254;SDS011;11296;42.684;23.322;2022-12-05T16:13:45;26.10;;;14.43;;
22254;SDS011;11296;42.684;23.322;2022-12-05T16:16:21;25.47;;;13.10;;
22254;SDS011;11296;42.684;23.322;2022-12-05T16:18:51;19.83;;;12.10;;
22254;SDS011;11296;42.684;23.322;2022-12-05T16:21:35;20.07;;;13.03;;
22254;SDS011;11296;42.684;23.322;2022-12-05T16:24:06;23.93;;;13.43;;
22254;SDS011;11296;42.684;23.322;2022-12-05T16:26:36;22.43;;;13.23;;
22254;SDS011;11296;42.684;23.322;2022-12-05T16:29:03;24.00;;;13.30;;
22254;SDS011;11296;42.684;23.322;2022-12-05T16:31:30;21.80;;;12.87;;
22254;SDS011;11296;42.684;23.322;2022-12-05T16:34:07;24.23;;;13.90;;
22254;SDS011;11296;42.684;23.322;2022-12-05T16:36:46;23.63;;;12.30;;
22254;SDS011;11296;42.684;23.322;2022-12-05T16:39:15;19.57;;;12.00;;
22254;SDS011;11296;42.684;23.322;2022-12-05T16:41:41;20.70;;;12.63;;
22254;SDS011;11296;42.684;23.322;2022-12-05T16:46:53;20.40;;;12.13;;
22254;SDS011;11296;42.684;23.322;2022-12-05T16:54:32;18.00;;;11.07;;
22254;SDS011;11296;42.684;23.322;2022-12-05T16:56:58;18.43;;;11.47;;
22254;SDS011;11296;42.684;23.322;2022-12-05T16:59:32;18.13;;;11.50;;
22254;SDS011;11296;42.684;23.322;2022-12-05T17:02:00;17.97;;;11.03;;
22254;SDS011;11296;42.684;23.322;2022-12-05T17:04:27;17.37;;;10.57;;
22254;SDS011;11296;42.684;23.322;2022-12-05T17:06:53;18.80;;;11.67;;
22254;SDS011;11296;42.684;23.322;2022-12-05T17:09:19;19.80;;;11.47;;
22254;SDS011;11296;42.684;23.322;2022-12-05T17:11:44;18.80;;;11.47;;
22254;SDS011;11296;42.684;23.322;2022-12-05T17:14:13;21.73;;;12.67;;
22254;SDS011;11296;42.684;23.322;2022-12-05T17:16:40;17.70;;;11.33;;
22254;SDS011;11296;42.684;23.322;2022-12-05T17:19:08;20.03;;;11.93;;
22254;SDS011;11296;42.684;23.322;2022-12-05T17:21:35;18.80;;;11.37;;
22254;SDS011;11296;42.684;23.322;2022-12-05T17:24:02;17.53;;;11.23;;
22254;SDS011;11296;42.684;23.322;2022-12-05T17:26:28;20.73;;;11.60;;
22254;SDS011;11296;42.684;23.322;2022-12-05T17:28:55;19.47;;;11.97;;
22254;SDS011;11296;42.684;23.322;2022-12-05T17:31:24;20.87;;;12.10;;
22254;SDS011;11296;42.684;23.322;2022-12-05T17:33:51;20.67;;;12.33;;
22254;SDS011;11296;42.684;23.322;2022-12-05T17:36:18;18.37;;;11.43;;
22254;SDS011;11296;42.684;23.322;2022-12-05T17:38:45;23.83;;;13.80;;
22254;SDS011;11296;42.684;23.322;2022-12-05T17:41:20;25.83;;;12.97;;
22254;SDS011;11296;42.684;23.322;2022-12-05T17:43:47;20.47;;;13.03;;
22254;SDS011;11296;42.684;23.322;2022-12-05T17:46:14;23.20;;;12.93;;
22254;SDS011;11296;42.684;23.322;2022-12-05T17:48:41;22.70;;;13.73;;
22254;SDS011;11296;42.684;23.322;2022-12-05T17:51:07;23.43;;;14.40;;
22254;SDS011;11296;42.684;23.322;2022-12-05T17:53:35;20.53;;;13.03;;